createdAt,value
2018-02-08T00:01:43.388Z,-1.00
2018-02-08T00:04:11.436Z,-0.90
2018-02-08T00:06:38.898Z,-1.00
2018-02-08T00:09:06.927Z,-1.00
2018-02-08T00:11:34.402Z,-1.10
2018-02-08T00:14:01.869Z,-1.00
2018-02-08T00:16:31.061Z,-1.00
2018-02-08T00:18:58.522Z,-1.00
2018-02-08T00:21:29.477Z,-1.00
2018-02-08T00:23:56.944Z,-1.00
2018-02-08T00:26:26.119Z,-1.20
2018-02-08T00:28:53.621Z,-1.20
2018-02-08T00:31:21.724Z,-1.20
2018-02-08T00:33:49.176Z,-1.20
2018-02-08T00:36:16.634Z,-1.20
2018-02-08T00:38:44.937Z,-1.20
2018-02-08T00:41:12.416Z,-1.10
2018-02-08T00:43:39.880Z,-1.10
2018-02-08T00:46:07.366Z,-1.10
2018-02-08T00:48:34.833Z,-1.00
2018-02-08T00:51:06.089Z,-1.00
2018-02-08T00:53:34.503Z,-0.90
2018-02-08T00:56:01.974Z,-0.90
2018-02-08T00:58:29.448Z,-0.90
2018-02-08T01:00:56.899Z,-0.90
2018-02-08T01:03:24.504Z,-0.90
2018-02-08T01:05:52.054Z,-0.90
2018-02-08T01:08:19.533Z,-0.90
2018-02-08T01:10:48.157Z,-0.80
2018-02-08T01:13:15.647Z,-0.70
2018-02-08T01:15:43.108Z,-0.80
2018-02-08T01:18:10.566Z,-0.70
2018-02-08T01:20:42.062Z,-0.70
2018-02-08T01:23:09.544Z,-0.70
2018-02-08T01:25:37.448Z,-0.80
2018-02-08T01:28:04.952Z,-0.70
2018-02-08T01:30:32.633Z,-0.70
2018-02-08T01:33:00.133Z,-0.70
2018-02-08T01:35:27.671Z,-0.70
2018-02-08T01:37:56.864Z,-0.80
2018-02-08T01:40:24.323Z,-0.80
2018-02-08T01:42:51.780Z,-0.70
2018-02-08T01:45:19.256Z,-0.70
2018-02-08T01:47:47.343Z,-0.80
2018-02-08T01:50:19.144Z,-0.70
2018-02-08T01:52:46.619Z,-0.60
2018-02-08T01:55:14.878Z,-0.60
2018-02-08T01:57:42.357Z,-0.60
2018-02-08T02:00:11.518Z,-0.70
2018-02-08T02:02:38.988Z,-0.80
2018-02-08T02:05:06.440Z,-0.70
2018-02-08T02:07:38.109Z,-0.70
2018-02-08T02:10:05.805Z,-0.80
2018-02-08T02:12:33.260Z,-0.90
2018-02-08T02:15:00.750Z,-1.00
2018-02-08T02:17:28.225Z,-1.00
2018-02-08T02:19:55.712Z,-0.90
2018-02-08T02:22:23.165Z,-0.80
2018-02-08T02:24:50.624Z,-0.80
2018-02-08T02:27:18.116Z,-0.90
2018-02-08T02:29:45.573Z,-0.90
2018-02-08T02:32:13.791Z,-1.00
2018-02-08T02:34:41.272Z,-1.00
2018-02-08T02:37:12.205Z,-1.00
2018-02-08T02:39:41.373Z,-1.00
2018-02-08T02:42:08.821Z,-1.00
2018-02-08T02:44:36.333Z,-1.00
2018-02-08T02:47:03.775Z,-1.10
2018-02-08T02:49:31.225Z,-1.20
2018-02-08T02:52:02.206Z,-1.10
2018-02-08T02:54:29.681Z,-1.10
2018-02-08T02:56:57.176Z,-1.20
2018-02-08T02:59:24.645Z,-1.20
2018-02-08T03:01:52.674Z,-1.20
2018-02-08T03:04:20.268Z,-1.30
2018-02-08T03:06:51.537Z,-1.20
2018-02-08T03:09:19.000Z,-1.10
2018-02-08T03:11:48.162Z,-1.00
2018-02-08T03:14:16.052Z,-1.10
2018-02-08T03:16:43.518Z,-1.00
2018-02-08T03:19:11.006Z,-0.90
2018-02-08T03:21:41.792Z,-0.90
2018-02-08T03:24:09.248Z,-1.00
2018-02-08T03:26:37.228Z,-1.00
2018-02-08T03:29:04.997Z,-1.00
2018-02-08T03:31:32.484Z,-1.00
2018-02-08T03:34:00.316Z,-1.00
2018-02-08T03:36:29.901Z,-1.10
2018-02-08T03:38:57.372Z,-1.10
2018-02-08T03:41:24.822Z,-1.10
2018-02-08T03:43:52.306Z,-1.10
2018-02-08T03:46:21.440Z,-1.10
2018-02-08T03:48:49.066Z,-1.10
2018-02-08T03:51:16.544Z,-1.00
2018-02-08T03:53:47.619Z,-1.10
2018-02-08T03:56:15.112Z,-1.20
2018-02-08T03:58:42.607Z,-1.20
2018-02-08T04:01:10.668Z,-1.30
2018-02-08T04:03:38.108Z,-1.30
2018-02-08T04:06:05.679Z,-1.20
2018-02-08T04:08:36.676Z,-1.20
2018-02-08T04:11:04.135Z,-1.20
2018-02-08T04:13:31.602Z,-1.30
2018-02-08T04:16:00.905Z,-1.40
2018-02-08T04:18:28.381Z,-1.40
2018-02-08T04:20:56.062Z,-1.40
2018-02-08T04:23:31.164Z,-1.50
2018-02-08T04:25:59.485Z,-1.30
2018-02-08T04:28:26.984Z,-1.30
2018-02-08T04:30:55.084Z,-1.30
2018-02-08T04:33:22.541Z,-1.30
2018-02-08T04:35:50.294Z,-1.30
2018-02-08T04:41:43.487Z,-1.40
2018-02-08T04:44:23.583Z,-1.60
2018-02-08T04:49:47.624Z,-1.60
2018-02-08T04:52:15.605Z,-1.60
2018-02-08T04:54:43.344Z,-1.70
2018-02-08T04:57:10.949Z,-1.70
2018-02-08T04:59:38.412Z,-1.80
2018-02-08T05:02:05.885Z,-1.80
2018-02-08T05:04:33.384Z,-1.90
2018-02-08T05:07:00.832Z,-1.80
2018-02-08T05:09:30.004Z,-1.70
2018-02-08T05:11:58.828Z,-1.70
2018-02-08T05:14:26.324Z,-1.70
2018-02-08T05:16:54.779Z,-1.70
2018-02-08T05:19:22.222Z,-1.70
2018-02-08T05:21:49.695Z,-1.60
2018-02-08T05:24:17.140Z,-1.50
2018-02-08T05:26:44.888Z,-1.60
2018-02-08T05:29:12.426Z,-1.60
2018-02-08T05:31:39.876Z,-1.60
2018-02-08T05:34:08.272Z,-1.60
2018-02-08T05:36:35.728Z,-1.60
2018-02-08T05:39:06.158Z,-1.60
2018-02-08T05:41:33.612Z,-1.60
2018-02-08T05:44:01.108Z,-1.50
2018-02-08T05:46:28.581Z,-1.60
2018-02-08T05:48:56.088Z,-1.70
2018-02-08T05:51:23.524Z,-1.60
2018-02-08T05:53:51.620Z,-1.60
2018-02-08T05:56:19.073Z,-1.70
2018-02-08T05:58:46.564Z,-1.70
2018-02-08T06:01:14.815Z,-1.70
2018-02-08T06:03:42.277Z,-1.70
2018-02-08T06:06:09.761Z,-1.80
2018-02-08T06:08:37.253Z,-1.80
2018-02-08T06:13:38.732Z,-2.00
2018-02-08T06:16:06.196Z,-2.00
2018-02-08T06:18:33.744Z,-2.10
2018-02-08T06:21:01.252Z,-2.10
2018-02-08T06:23:28.772Z,-2.10
2018-02-08T06:26:00.748Z,-2.00
2018-02-08T06:28:28.204Z,-1.90
2018-02-08T06:30:55.676Z,-1.80
2018-02-08T06:33:23.432Z,-1.80
2018-02-08T06:35:50.916Z,-1.90
2018-02-08T06:38:18.365Z,-1.90
2018-02-08T06:40:45.824Z,-1.90
2018-02-08T06:43:13.310Z,-1.80
2018-02-08T06:45:40.766Z,-1.70
2018-02-08T06:48:09.007Z,-1.70
2018-02-08T06:50:36.476Z,-1.70
2018-02-08T06:53:03.934Z,-1.70
2018-02-08T06:55:35.753Z,-1.80
2018-02-08T06:58:04.153Z,-1.80
2018-02-08T07:00:32.973Z,-1.70
2018-02-08T07:03:00.488Z,-1.60
2018-02-08T07:05:28.893Z,-1.70
2018-02-08T07:07:56.352Z,-1.70
2018-02-08T07:10:23.830Z,-1.70
2018-02-08T07:12:55.623Z,-1.70
2018-02-08T07:15:24.028Z,-1.70
2018-02-08T07:17:51.521Z,-1.60
2018-02-08T07:20:19.157Z,-1.50
2018-02-08T07:22:46.600Z,-1.50
2018-02-08T07:25:14.044Z,-1.40
2018-02-08T07:27:41.534Z,-1.50
2018-02-08T07:30:08.980Z,-1.50
2018-02-08T07:32:37.388Z,-1.50
2018-02-08T07:35:04.824Z,-1.40
2018-02-08T07:37:32.348Z,-1.30
2018-02-08T07:39:59.836Z,-1.10
2018-02-08T07:42:27.276Z,-1.00
2018-02-08T07:44:54.728Z,-0.80
2018-02-08T07:47:22.368Z,-0.70
2018-02-08T07:49:49.816Z,-0.70
2018-02-08T07:52:17.292Z,-0.80
2018-02-08T07:54:44.823Z,-0.70
2018-02-08T07:57:12.240Z,-0.80
2018-02-08T07:59:40.556Z,-0.70
2018-02-08T08:02:08.041Z,-0.50
2018-02-08T08:04:35.500Z,-0.40
2018-02-08T08:07:02.969Z,-0.20
2018-02-08T08:09:30.432Z,-0.10
2018-02-08T08:11:59.668Z,0.00
2018-02-08T08:14:28.192Z,0.10
2018-02-08T08:16:55.661Z,0.10
2018-02-08T08:19:25.561Z,0.20
2018-02-08T08:21:53.024Z,0.20
2018-02-08T08:24:20.477Z,0.20
2018-02-08T08:26:58.957Z,0.20
2018-02-08T08:29:26.460Z,0.20
2018-02-08T08:31:53.910Z,0.20
2018-02-08T08:34:21.676Z,0.30
2018-02-08T08:36:50.425Z,0.10
2018-02-08T08:39:17.920Z,0.10
2018-02-08T08:41:45.389Z,0.20
2018-02-08T08:44:12.820Z,0.20
2018-02-08T08:46:40.304Z,0.40
2018-02-08T08:49:07.748Z,0.40
2018-02-08T08:51:35.229Z,0.50
2018-02-08T08:54:03.087Z,0.40
2018-02-08T08:56:30.524Z,0.40
2018-02-08T08:59:00.861Z,0.60
2018-02-08T09:01:28.312Z,0.70
2018-02-08T09:03:55.820Z,0.80
2018-02-08T09:06:23.323Z,0.90
2018-02-08T09:08:50.760Z,0.80
2018-02-08T09:11:18.242Z,0.80
2018-02-08T09:13:45.691Z,0.90
2018-02-08T09:16:13.135Z,0.90
2018-02-08T09:18:41.533Z,1.00
2018-02-08T09:21:08.980Z,1.00
2018-02-08T09:23:36.440Z,1.10
2018-02-08T09:26:03.939Z,1.20
2018-02-08T09:28:36.800Z,1.50
2018-02-08T09:31:04.236Z,1.50
2018-02-08T09:33:31.711Z,1.70
2018-02-08T09:35:59.714Z,1.80
2018-02-08T09:38:27.160Z,1.90
2018-02-08T09:40:54.634Z,1.70
2018-02-08T09:43:24.900Z,1.50
2018-02-08T09:45:52.356Z,1.60
2018-02-08T09:48:21.581Z,2.00
2018-02-08T09:50:49.817Z,2.30
2018-02-08T09:53:17.310Z,2.30
2018-02-08T09:55:45.527Z,2.40
2018-02-08T09:58:15.999Z,2.50
2018-02-08T10:00:43.514Z,2.70
2018-02-08T10:03:11.003Z,2.70
2018-02-08T10:05:38.496Z,2.70
2018-02-08T10:08:05.955Z,2.80
2018-02-08T10:10:33.548Z,2.80
2018-02-08T10:13:01.088Z,2.80
2018-02-08T10:15:29.464Z,2.80
2018-02-08T10:17:56.908Z,2.80
2018-02-08T10:20:24.451Z,2.90
2018-02-08T10:22:51.891Z,2.90
2018-02-08T10:25:19.338Z,2.70
2018-02-08T10:27:46.859Z,2.70
2018-02-08T10:30:14.345Z,2.60
2018-02-08T10:32:41.840Z,2.40
2018-02-08T10:35:09.292Z,2.40
2018-02-08T10:37:38.185Z,2.50
2018-02-08T10:40:08.055Z,2.70
2018-02-08T10:42:35.586Z,2.70
2018-02-08T10:45:03.074Z,2.80
2018-02-08T10:47:30.552Z,3.00
2018-02-08T10:49:58.099Z,3.30
2018-02-08T10:52:25.711Z,3.30
2018-02-08T10:54:53.160Z,3.30
2018-02-08T10:57:21.379Z,3.40
2018-02-08T10:59:48.850Z,3.60
2018-02-08T11:02:16.308Z,3.70
2018-02-08T11:04:43.793Z,3.60
2018-02-08T11:07:11.353Z,3.50
2018-02-08T11:09:39.110Z,3.50
2018-02-08T11:12:06.586Z,3.50
2018-02-08T11:14:34.329Z,3.30
2018-02-08T11:17:01.808Z,3.40
2018-02-08T11:19:29.776Z,3.40
2018-02-08T11:21:57.232Z,3.10
2018-02-08T11:24:25.325Z,3.10
2018-02-08T11:26:52.815Z,3.20
2018-02-08T11:29:20.309Z,3.30
2018-02-08T11:31:47.918Z,3.20
2018-02-08T11:34:15.376Z,3.30
2018-02-08T11:36:43.344Z,3.40
2018-02-08T11:39:10.941Z,3.60
2018-02-08T11:41:39.157Z,3.60
2018-02-08T11:44:06.664Z,3.60
2018-02-08T11:46:34.204Z,3.40
2018-02-08T11:49:02.424Z,3.40
2018-02-08T11:51:30.171Z,3.40
2018-02-08T11:53:57.591Z,3.40
2018-02-08T11:56:25.081Z,3.40
2018-02-08T11:58:52.556Z,3.40
2018-02-08T12:01:20.018Z,3.20
2018-02-08T12:03:47.768Z,3.10
2018-02-08T12:06:15.245Z,2.90
2018-02-08T12:08:42.850Z,2.80
2018-02-08T12:11:11.644Z,2.40
2018-02-08T12:13:39.155Z,2.40
2018-02-08T12:16:06.649Z,2.50
2018-02-08T12:18:37.740Z,2.60
2018-02-08T12:21:05.741Z,2.80
2018-02-08T12:23:33.243Z,2.80
2018-02-08T12:26:00.696Z,2.80
2018-02-08T12:28:28.152Z,2.80
2018-02-08T12:31:00.228Z,2.80
2018-02-08T12:33:30.768Z,2.80
2018-02-08T12:35:58.246Z,2.90
2018-02-08T12:38:25.795Z,2.90
2018-02-08T12:40:53.258Z,3.00
2018-02-08T12:43:21.476Z,3.30
2018-02-08T12:45:48.966Z,3.20
2018-02-08T12:48:20.036Z,3.20
2018-02-08T12:50:47.485Z,3.20
2018-02-08T12:53:14.927Z,3.20
2018-02-08T12:55:42.528Z,3.20
2018-02-08T12:58:10.253Z,3.20
2018-02-08T13:00:37.712Z,3.30
2018-02-08T13:03:05.144Z,3.50
2018-02-08T13:05:32.769Z,3.70
2018-02-08T13:08:00.989Z,3.90
2018-02-08T13:10:28.781Z,3.80
2018-02-08T13:12:56.240Z,3.90
2018-02-08T13:15:23.679Z,3.80
2018-02-08T13:17:54.854Z,3.80
2018-02-08T13:20:22.443Z,3.80
2018-02-08T13:22:50.055Z,3.60
2018-02-08T13:25:18.162Z,3.50
2018-02-08T13:27:45.603Z,3.20
2018-02-08T13:30:13.225Z,3.00
2018-02-08T13:32:40.668Z,2.90
2018-02-08T13:35:08.159Z,2.70
2018-02-08T13:37:35.607Z,2.70
2018-02-08T13:40:08.805Z,2.60
2018-02-08T13:42:36.245Z,2.80
2018-02-08T13:45:03.803Z,3.00
2018-02-08T13:47:35.568Z,3.10
2018-02-08T13:53:19.310Z,3.00
2018-02-08T13:58:49.697Z,2.90
2018-02-08T14:01:20.605Z,3.00
2018-02-08T14:03:48.070Z,3.10
2018-02-08T14:06:16.328Z,3.30
2018-02-08T14:08:43.849Z,3.30
2018-02-08T14:11:11.380Z,3.50
2018-02-08T14:13:38.953Z,3.50
2018-02-08T14:16:06.418Z,3.40
2018-02-08T14:18:33.936Z,3.30
2018-02-08T14:21:01.453Z,3.40
2018-02-08T14:23:29.632Z,3.50
2018-02-08T14:25:57.237Z,3.50
2018-02-08T14:28:24.684Z,3.50
2018-02-08T14:30:52.337Z,3.40
2018-02-08T14:33:22.895Z,3.40
2018-02-08T14:35:50.345Z,3.50
2018-02-08T14:38:17.960Z,3.70
2018-02-08T14:40:45.438Z,3.70
2018-02-08T14:43:13.691Z,3.60
2018-02-08T14:45:41.513Z,3.40
2018-02-08T14:48:12.967Z,3.30
2018-02-08T14:50:40.442Z,3.40
2018-02-08T14:53:08.648Z,3.30
2018-02-08T14:55:36.115Z,3.30
2018-02-08T14:58:03.606Z,3.40
2018-02-08T15:00:32.179Z,3.30
2018-02-08T15:02:59.657Z,3.30
2018-02-08T15:05:28.293Z,3.30
2018-02-08T15:07:55.972Z,3.30
2018-02-08T15:10:23.437Z,3.20
2018-02-08T15:12:51.038Z,3.30
2018-02-08T15:15:20.178Z,2.90
2018-02-08T15:17:47.706Z,2.90
2018-02-08T15:20:15.166Z,2.70
2018-02-08T15:22:42.645Z,2.80
2018-02-08T15:25:10.126Z,2.60
2018-02-08T15:27:37.683Z,2.60
2018-02-08T15:30:05.196Z,2.60
2018-02-08T15:32:32.638Z,2.50
2018-02-08T15:35:05.755Z,2.40
2018-02-08T15:37:33.234Z,2.40
2018-02-08T15:40:01.613Z,2.40
2018-02-08T15:42:29.076Z,2.30
2018-02-08T15:44:56.667Z,2.10
2018-02-08T15:47:24.156Z,2.00
2018-02-08T15:49:59.085Z,1.90
2018-02-08T15:52:26.716Z,1.90
2018-02-08T15:54:54.245Z,1.80
2018-02-08T15:57:21.873Z,1.90
2018-02-08T15:59:49.328Z,1.90
2018-02-08T16:02:18.920Z,2.00
2018-02-08T16:04:47.145Z,2.10
2018-02-08T16:07:14.632Z,2.10
2018-02-08T16:09:42.199Z,2.00
2018-02-08T16:12:11.374Z,2.00
2018-02-08T16:14:38.884Z,2.00
2018-02-08T16:17:06.363Z,1.90
2018-02-08T16:19:38.061Z,1.80
2018-02-08T16:22:05.676Z,1.70
2018-02-08T16:24:33.149Z,1.60
2018-02-08T16:27:00.610Z,1.70
2018-02-08T16:29:28.158Z,1.70
2018-02-08T16:31:55.641Z,1.70
2018-02-08T16:34:23.206Z,1.80
2018-02-08T16:36:50.677Z,1.90
2018-02-08T16:39:18.140Z,1.90
2018-02-08T16:41:45.648Z,1.90
2018-02-08T16:44:14.425Z,1.70
2018-02-08T16:46:41.888Z,1.70
2018-02-08T16:49:09.357Z,1.70
2018-02-08T16:51:36.836Z,1.70
2018-02-08T16:54:04.429Z,1.70
2018-02-08T16:56:32.074Z,1.70
2018-02-08T16:58:59.552Z,1.70
2018-02-08T17:01:28.040Z,1.60
2018-02-08T17:03:55.533Z,1.60
2018-02-08T17:06:23.762Z,1.70
2018-02-08T17:08:52.172Z,1.60
2018-02-08T17:11:19.803Z,1.80
2018-02-08T17:13:47.253Z,1.90
2018-02-08T17:16:14.760Z,1.90
2018-02-08T17:18:42.382Z,1.80
2018-02-08T17:21:13.628Z,1.60
2018-02-08T17:23:41.132Z,1.60
2018-02-08T17:26:08.772Z,1.50
2018-02-08T17:28:36.229Z,1.50
2018-02-08T17:31:03.872Z,1.50
2018-02-08T17:33:31.329Z,1.50
2018-02-08T17:35:58.815Z,1.40
2018-02-08T17:38:26.362Z,1.50
2018-02-08T17:40:53.908Z,1.50
2018-02-08T17:43:21.492Z,1.50
2018-02-08T17:45:48.979Z,1.50
2018-02-08T17:48:17.243Z,1.50
2018-02-08T17:50:44.708Z,1.40
2018-02-08T17:53:12.948Z,1.40
2018-02-08T17:55:40.416Z,1.40
2018-02-08T17:58:07.886Z,1.40
2018-02-08T18:00:35.355Z,1.30
2018-02-08T18:03:03.756Z,1.40
2018-02-08T18:05:31.233Z,1.30
2018-02-08T18:08:02.114Z,1.30
2018-02-08T18:10:29.585Z,1.20
2018-02-08T18:12:59.456Z,1.30
2018-02-08T18:15:26.950Z,1.20
2018-02-08T18:17:54.405Z,1.20
2018-02-08T18:20:24.357Z,1.30
2018-02-08T18:22:52.036Z,1.20
2018-02-08T18:25:19.516Z,1.20
2018-02-08T18:27:48.578Z,1.20
2018-02-08T18:30:16.042Z,1.20
2018-02-08T18:32:43.565Z,1.10
2018-02-08T18:35:11.876Z,1.10
2018-02-08T18:37:40.352Z,1.10
2018-02-08T18:40:07.844Z,1.10
2018-02-08T18:42:35.305Z,1.10
2018-02-08T18:45:02.761Z,1.00
2018-02-08T18:47:30.229Z,1.10
2018-02-08T18:49:57.705Z,1.00
2018-02-08T18:52:30.081Z,0.90
2018-02-08T18:54:57.656Z,0.90
2018-02-08T18:57:25.237Z,1.00
2018-02-08T18:59:53.148Z,0.90
2018-02-08T19:02:21.544Z,0.90
2018-02-08T19:04:49.912Z,0.90
2018-02-08T19:07:20.425Z,0.80
2018-02-08T19:09:47.888Z,0.90
2018-02-08T19:12:15.405Z,1.00
2018-02-08T19:14:42.870Z,0.90
2018-02-08T19:17:11.700Z,0.90
2018-02-08T19:19:39.186Z,0.90
2018-02-08T19:22:10.566Z,1.00
2018-02-08T19:24:37.993Z,1.00
2018-02-08T19:27:05.859Z,1.00
2018-02-08T19:29:33.315Z,1.00
2018-02-08T19:32:01.015Z,1.10
2018-02-08T19:34:28.494Z,1.10
2018-02-08T19:36:56.637Z,1.10
2018-02-08T19:39:28.253Z,1.10
2018-02-08T19:41:56.472Z,1.00
2018-02-08T19:44:23.928Z,1.00
2018-02-08T19:46:51.402Z,0.90
2018-02-08T19:49:19.818Z,0.90
2018-02-08T19:51:47.297Z,0.90
2018-02-08T19:54:14.810Z,0.90
2018-02-08T19:56:42.240Z,0.90
2018-02-08T19:59:09.684Z,0.90
2018-02-08T20:01:37.156Z,0.80
2018-02-08T20:04:05.114Z,0.70
2018-02-08T20:06:32.594Z,0.50
2018-02-08T20:09:03.171Z,0.40
2018-02-08T20:11:30.661Z,0.30
2018-02-08T20:13:59.255Z,0.20
2018-02-08T20:16:26.680Z,0.20
2018-02-08T20:18:54.162Z,0.20
2018-02-08T20:21:21.957Z,0.20
2018-02-08T20:23:49.709Z,0.10
2018-02-08T20:26:18.570Z,0.10
2018-02-08T20:28:46.061Z,0.10
2018-02-08T20:31:13.505Z,0.10
2018-02-08T20:33:40.981Z,0.00
2018-02-08T20:36:08.462Z,0.00
2018-02-08T20:38:36.840Z,0.00
2018-02-08T20:41:04.339Z,0.00
2018-02-08T20:43:31.793Z,-0.10
2018-02-08T20:45:59.841Z,-0.10
2018-02-08T20:48:27.296Z,-0.20
2018-02-08T20:50:54.807Z,-0.30
2018-02-08T20:53:22.333Z,-0.30
2018-02-08T20:55:49.816Z,-0.20
2018-02-08T20:58:17.266Z,-0.20
2018-02-08T21:00:46.156Z,-0.10
2018-02-08T21:03:13.842Z,-0.10
2018-02-08T21:05:41.283Z,0.00
2018-02-08T21:08:08.778Z,0.10
2018-02-08T21:10:37.090Z,0.20
2018-02-08T21:13:04.633Z,0.20
2018-02-08T21:15:32.088Z,0.20
2018-02-08T21:17:59.770Z,0.20
2018-02-08T21:20:27.229Z,0.20
2018-02-08T21:22:54.727Z,0.10
2018-02-08T21:25:22.168Z,0.00
2018-02-08T21:27:49.909Z,0.10
2018-02-08T21:30:18.732Z,0.10
2018-02-08T21:32:46.198Z,0.10
2018-02-08T21:35:15.168Z,0.20
2018-02-08T21:37:42.860Z,0.20
2018-02-08T21:40:10.315Z,0.20
2018-02-08T21:42:38.029Z,0.20
2018-02-08T21:45:06.752Z,0.20
2018-02-08T21:47:34.221Z,0.20
2018-02-08T21:50:02.103Z,0.30
2018-02-08T21:52:29.574Z,0.30
2018-02-08T21:54:57.058Z,0.30
2018-02-08T21:57:24.550Z,0.40
2018-02-08T21:59:52.028Z,0.40
2018-02-08T22:02:19.677Z,0.40
2018-02-08T22:04:47.160Z,0.40
2018-02-08T22:07:14.682Z,0.30
2018-02-08T22:09:42.140Z,0.20
2018-02-08T22:12:10.336Z,0.10
2018-02-08T22:14:38.725Z,0.10
2018-02-08T22:17:06.180Z,0.10
2018-02-08T22:19:33.648Z,0.10
2018-02-08T22:22:01.107Z,0.00
2018-02-08T22:24:29.309Z,-0.10
2018-02-08T22:26:56.897Z,-0.20
2018-02-08T22:29:25.404Z,-0.30
2018-02-08T22:31:55.274Z,-0.50
2018-02-08T22:34:22.728Z,-0.50
2018-02-08T22:36:50.221Z,-0.40
2018-02-08T22:39:17.685Z,-0.40
2018-02-08T22:41:49.430Z,-0.40
2018-02-08T22:44:17.287Z,-0.40
2018-02-08T22:46:44.748Z,-0.40
2018-02-08T22:49:12.302Z,-0.40
2018-02-08T22:51:39.745Z,-0.40
2018-02-08T22:54:09.095Z,-0.50
2018-02-08T22:56:37.350Z,-0.50
2018-02-08T22:59:04.830Z,-0.50
2018-02-08T23:01:33.209Z,-0.50
2018-02-08T23:04:01.443Z,-0.50
2018-02-08T23:06:28.941Z,-0.50
2018-02-08T23:08:56.655Z,-0.60
2018-02-08T23:11:24.112Z,-0.70
2018-02-08T23:13:52.953Z,-0.80
2018-02-08T23:16:21.176Z,-1.00
2018-02-08T23:18:48.648Z,-1.00
2018-02-08T23:21:18.798Z,-1.10
2018-02-08T23:23:47.857Z,-1.20
2018-02-08T23:26:15.320Z,-1.20
2018-02-08T23:28:42.925Z,-1.10
2018-02-08T23:31:12.063Z,-1.20
2018-02-08T23:33:39.612Z,-1.20
2018-02-08T23:36:07.073Z,-1.40
2018-02-08T23:38:34.536Z,-1.30
2018-02-08T23:41:02.031Z,-1.40
2018-02-08T23:43:29.491Z,-1.40
2018-02-08T23:45:57.733Z,-1.50
2018-02-08T23:48:25.552Z,-1.50
2018-02-08T23:50:53.031Z,-1.50
2018-02-08T23:53:20.600Z,-1.50
2018-02-08T23:55:48.045Z,-1.70
2018-02-08T23:58:19.024Z,-1.80
